createdAt,value
2018-04-10T00:01:00.918Z,100002.04
2018-04-10T00:13:14.135Z,99990.30
2018-04-10T00:15:42.210Z,99993.77
2018-04-10T00:18:10.321Z,99998.23
2018-04-10T00:20:38.432Z,99992.83
2018-04-10T00:23:07.232Z,99993.72
2018-04-10T00:25:35.372Z,99991.56
2018-04-10T00:28:03.488Z,99991.67
2018-04-10T00:30:31.605Z,99994.02
2018-04-10T00:32:59.696Z,99979.20
2018-04-10T00:35:28.520Z,99985.42
2018-04-10T00:37:56.617Z,99980.77
2018-04-10T00:40:25.420Z,99976.73
2018-04-10T00:42:53.517Z,99978.25
2018-04-10T00:45:21.611Z,99973.02
2018-04-10T00:47:49.732Z,99976.06
2018-04-10T00:50:17.869Z,99973.77
2018-04-10T00:52:45.928Z,99976.45
2018-04-10T00:55:15.034Z,99972.63
2018-04-10T00:57:43.161Z,99974.33
2018-04-10T01:00:11.259Z,99969.20
2018-04-10T01:02:39.377Z,99969.09
2018-04-10T01:05:07.467Z,99971.67
2018-04-10T01:07:35.561Z,99975.53
2018-04-10T01:10:03.669Z,99979.06
2018-04-10T01:12:31.767Z,99976.94
2018-04-10T01:14:59.892Z,99982.27
2018-04-10T01:17:28.819Z,99978.92
2018-04-10T01:19:56.941Z,99981.09
2018-04-10T01:22:25.052Z,99970.41
2018-04-10T01:24:54.719Z,99977.59
2018-04-10T01:27:22.803Z,99974.67
2018-04-10T01:29:50.908Z,99981.13
2018-04-10T01:32:19.011Z,99985.41
2018-04-10T01:34:47.557Z,99986.98
2018-04-10T01:37:15.659Z,99990.20
2018-04-10T01:39:44.659Z,99985.71
2018-04-10T01:42:12.815Z,99992.17
2018-04-10T01:44:40.940Z,99989.28
2018-04-10T01:47:09.035Z,99993.34
2018-04-10T02:02:37.600Z,99992.78
2018-04-10T02:05:05.700Z,99994.94
2018-04-10T02:07:33.796Z,99986.10
2018-04-10T02:10:02.281Z,99982.95
2018-04-10T02:12:30.388Z,99981.37
2018-04-10T02:14:58.486Z,99981.37
2018-04-10T02:17:26.588Z,99990.59
2018-04-10T02:19:54.678Z,99990.70
2018-04-10T02:22:22.781Z,99991.33
2018-04-10T02:24:50.905Z,99979.03
2018-04-10T02:27:19.005Z,99982.92
2018-04-10T02:29:47.393Z,99978.57
2018-04-10T02:32:16.673Z,99976.88
2018-04-10T02:34:45.545Z,99985.39
2018-04-10T02:37:13.981Z,99993.06
2018-04-10T02:39:42.083Z,100002.58
2018-04-10T02:42:10.268Z,100003.39
2018-04-10T02:44:38.865Z,99995.72
2018-04-10T02:47:07.771Z,99986.95
2018-04-10T02:49:35.951Z,99991.61
2018-04-10T02:52:04.064Z,99984.11
2018-04-10T02:54:32.211Z,99983.61
2018-04-10T02:57:00.287Z,99988.91
2018-04-10T02:59:28.414Z,99980.55
2018-04-10T03:01:58.761Z,99984.05
2018-04-10T03:04:27.330Z,99985.66
2018-04-10T03:06:55.496Z,99985.23
2018-04-10T03:09:23.624Z,99996.69
2018-04-10T03:11:52.743Z,100007.26
2018-04-10T03:14:20.856Z,100004.45
2018-04-10T03:16:51.613Z,99998.92
2018-04-10T03:19:19.704Z,99998.95
2018-04-10T03:21:48.836Z,100005.25
2018-04-10T03:24:16.927Z,100008.69
2018-04-10T03:26:45.020Z,100015.64
2018-04-10T03:29:13.159Z,100009.59
2018-04-10T03:31:41.280Z,100003.23
2018-04-10T03:34:09.987Z,100005.27
2018-04-10T03:36:38.093Z,100008.07
2018-04-10T03:39:08.971Z,100004.36
2018-04-10T03:41:37.072Z,100008.23
2018-04-10T03:44:06.176Z,100009.12
2018-04-10T03:46:34.290Z,100009.84
2018-04-10T03:49:02.381Z,100016.09
2018-04-10T03:51:30.483Z,100017.45
2018-04-10T03:53:58.612Z,100023.69
2018-04-10T03:56:27.011Z,100030.30
2018-04-10T03:58:55.116Z,100028.84
2018-04-10T04:01:23.251Z,100025.06
2018-04-10T04:03:51.867Z,100033.22
2018-04-10T04:06:19.939Z,100028.72
2018-04-10T04:08:48.552Z,100030.48
2018-04-10T04:11:16.664Z,100032.33
2018-04-10T04:13:44.781Z,100028.78
2018-04-10T04:16:24.652Z,100027.48
2018-04-10T04:19:04.747Z,100031.30
2018-04-10T04:21:44.707Z,100034.13
2018-04-10T04:24:12.864Z,100033.58
2018-04-10T04:26:40.982Z,100037.08
2018-04-10T04:29:09.088Z,100037.40
2018-04-10T04:31:37.228Z,100045.62
2018-04-10T04:34:05.351Z,100039.80
2018-04-10T04:36:33.447Z,100041.61
2018-04-10T04:39:01.554Z,100041.92
2018-04-10T04:41:29.647Z,100050.98
2018-04-10T04:43:57.755Z,100043.34
2018-04-10T04:46:25.883Z,100049.67
2018-04-10T04:48:53.984Z,100056.81
2018-04-10T04:51:22.087Z,100055.04
2018-04-10T04:53:50.216Z,100046.89
2018-04-10T04:56:18.321Z,100057.13
2018-04-10T04:58:46.429Z,100059.20
2018-04-10T05:01:15.148Z,100061.79
2018-04-10T05:03:43.269Z,100067.24
2018-04-10T05:06:12.307Z,100069.86
2018-04-10T05:08:40.431Z,100065.40
2018-04-10T05:11:08.936Z,100070.47
2018-04-10T05:13:37.045Z,100072.33
2018-04-10T05:16:05.222Z,100075.27
2018-04-10T05:18:33.299Z,100085.06
2018-04-10T05:21:01.449Z,100091.41
2018-04-10T05:23:29.569Z,100088.89
2018-04-10T05:25:57.675Z,100091.37
2018-04-10T05:28:25.795Z,100086.81
2018-04-10T05:30:53.936Z,100095.09
2018-04-10T05:33:22.061Z,100088.97
2018-04-10T05:35:53.102Z,100090.31
2018-04-10T05:38:21.205Z,100094.09
2018-04-10T05:40:49.324Z,100095.41
2018-04-10T05:43:18.038Z,100101.03
2018-04-10T05:45:46.191Z,100095.04
2018-04-10T05:48:14.298Z,100101.42
2018-04-10T05:50:42.402Z,100107.89
2018-04-10T05:53:10.598Z,100110.75
2018-04-10T05:55:38.707Z,100115.81
2018-04-10T05:58:06.817Z,100115.09
2018-04-10T06:00:34.922Z,100114.83
2018-04-10T06:03:08.701Z,100116.66
2018-04-10T06:05:37.157Z,100132.00
2018-04-10T06:08:05.263Z,100126.27
2018-04-10T06:10:33.729Z,100124.02
2018-04-10T06:13:01.831Z,100130.28
2018-04-10T06:15:29.944Z,100127.59
2018-04-10T06:17:58.047Z,100121.46
2018-04-10T06:20:26.395Z,100127.20
2018-04-10T06:22:54.480Z,100136.33
2018-04-10T06:25:23.405Z,100143.17
2018-04-10T06:27:51.838Z,100152.26
2018-04-10T06:30:20.026Z,100160.11
2018-04-10T06:32:48.176Z,100168.02
2018-04-10T06:35:16.289Z,100167.62
2018-04-10T06:37:44.393Z,100175.55
2018-04-10T06:40:12.656Z,100180.34
2018-04-10T06:55:40.780Z,100194.77
2018-04-10T06:58:08.903Z,100199.86
2018-04-10T07:00:37.011Z,100200.42
2018-04-10T07:03:05.140Z,100202.06
2018-04-10T07:05:33.248Z,100211.43
2018-04-10T07:08:01.414Z,100215.20
2018-04-10T07:10:29.516Z,100223.13
2018-04-10T07:12:57.628Z,100230.62
2018-04-10T07:15:25.764Z,100233.44
2018-04-10T07:17:53.880Z,100233.05
2018-04-10T07:20:23.018Z,100242.06
2018-04-10T07:22:51.732Z,100241.35
2018-04-10T07:25:21.199Z,100241.45
2018-04-10T07:27:49.316Z,100243.05
2018-04-10T07:30:18.189Z,100250.61
2018-04-10T07:32:46.290Z,100249.75
2018-04-10T07:35:14.413Z,100254.72
2018-04-10T07:37:42.579Z,100263.63
2018-04-10T07:40:10.721Z,100273.54
2018-04-10T07:42:38.836Z,100278.96
2018-04-10T07:45:07.955Z,100279.48
2018-04-10T07:47:36.829Z,100281.78
2018-04-10T08:03:04.959Z,100280.86
2018-04-10T08:05:33.136Z,100280.56
2018-04-10T08:08:01.258Z,100274.89
2018-04-10T08:10:29.358Z,100270.87
2018-04-10T08:12:57.467Z,100260.55
2018-04-10T08:15:25.614Z,100260.92
2018-04-10T08:17:53.734Z,100259.23
2018-04-10T08:20:21.844Z,100266.46
2018-04-10T08:22:49.985Z,100276.31
2018-04-10T08:25:18.094Z,100272.13
2018-04-10T08:27:46.197Z,100276.64
2018-04-10T08:30:14.313Z,100278.72
2018-04-10T08:32:42.445Z,100276.23
2018-04-10T08:35:10.539Z,100264.99
2018-04-10T08:37:38.669Z,100263.89
2018-04-10T08:40:07.217Z,100262.51
2018-04-10T08:42:35.353Z,100267.24
2018-04-10T08:45:04.097Z,100269.66
2018-04-10T08:47:32.217Z,100275.33
2018-04-10T08:50:00.417Z,100280.01
2018-04-10T08:52:28.509Z,100284.79
2018-04-10T08:54:56.661Z,100286.30
2018-04-10T08:57:24.784Z,100290.52
2018-04-10T08:59:52.889Z,100295.03
2018-04-10T09:02:21.024Z,100292.80
2018-04-10T09:04:49.130Z,100288.11
2018-04-10T09:07:17.252Z,100286.90
2018-04-10T09:09:45.374Z,100286.71
2018-04-10T09:12:13.466Z,100290.47
2018-04-10T09:14:42.005Z,100289.84
2018-04-10T09:17:10.129Z,100302.38
2018-04-10T09:19:38.587Z,100290.47
2018-04-10T09:22:07.162Z,100290.94
2018-04-10T09:24:35.318Z,100296.90
2018-04-10T09:27:03.461Z,100299.55
2018-04-10T09:29:31.578Z,100299.27
2018-04-10T09:32:01.528Z,100317.70
2018-04-10T09:34:29.601Z,100310.19
2018-04-10T09:36:58.960Z,100308.66
2018-04-10T09:39:27.808Z,100315.28
2018-04-10T09:41:55.939Z,100316.60
2018-04-10T09:44:24.338Z,100312.95
2018-04-10T09:46:52.437Z,100322.64
2018-04-10T09:49:21.442Z,100325.00
2018-04-10T09:51:49.987Z,100328.58
2018-04-10T09:54:18.076Z,100324.86
2018-04-10T09:56:46.410Z,100336.02
2018-04-10T09:59:14.527Z,100342.92
2018-04-10T10:01:42.642Z,100345.33
2018-04-10T10:04:10.757Z,100338.34
2018-04-10T10:06:38.911Z,100340.30
2018-04-10T10:09:07.080Z,100335.04
2018-04-10T10:11:35.188Z,100336.23
2018-04-10T10:14:03.286Z,100337.52
2018-04-10T10:16:32.175Z,100342.97
2018-04-10T10:19:01.247Z,100341.28
2018-04-10T10:21:29.376Z,100339.97
2018-04-10T10:23:57.483Z,100347.16
2018-04-10T10:26:25.612Z,100347.12
2018-04-10T10:28:53.722Z,100352.11
2018-04-10T10:31:21.873Z,100354.14
2018-04-10T10:33:50.005Z,100353.30
2018-04-10T10:36:18.137Z,100354.87
2018-04-10T10:38:46.238Z,100356.65
2018-04-10T10:41:14.385Z,100357.19
2018-04-10T10:43:42.484Z,100355.53
2018-04-10T10:46:11.356Z,100363.95
2018-04-10T10:48:39.804Z,100370.14
2018-04-10T10:51:08.255Z,100370.44
2018-04-10T10:53:36.350Z,100369.36
2018-04-10T10:56:09.418Z,100364.28
2018-04-10T10:58:37.514Z,100364.16
2018-04-10T11:01:05.647Z,100365.84
2018-04-10T11:03:33.761Z,100363.42
2018-04-10T11:06:02.113Z,100362.84
2018-04-10T11:08:30.210Z,100363.26
2018-04-10T11:10:58.321Z,100367.66
2018-04-10T11:13:26.422Z,100371.91
2018-04-10T11:15:54.550Z,100378.16
2018-04-10T11:18:22.665Z,100379.09
2018-04-10T11:20:51.521Z,100375.79
2018-04-10T11:23:19.643Z,100374.47
2018-04-10T11:25:47.769Z,100369.37
2018-04-10T11:28:15.882Z,100380.11
2018-04-10T11:30:44.002Z,100371.25
2018-04-10T11:33:12.092Z,100368.58
2018-04-10T11:35:40.196Z,100369.59
2018-04-10T11:38:09.208Z,100376.58
2018-04-10T11:40:37.308Z,100377.80
2018-04-10T11:43:06.438Z,100376.73
2018-04-10T11:45:34.539Z,100381.78
2018-04-10T11:48:02.913Z,100381.28
2018-04-10T11:50:31.032Z,100381.21
2018-04-10T11:52:59.129Z,100378.23
2018-04-10T11:55:27.307Z,100378.50
2018-04-10T11:57:55.453Z,100389.66
2018-04-10T12:00:23.561Z,100388.69
2018-04-10T12:02:51.740Z,100380.15
2018-04-10T12:05:19.961Z,100386.67
2018-04-10T12:07:48.044Z,100392.17
2018-04-10T12:10:16.163Z,100373.88
2018-04-10T12:12:44.283Z,100371.68
2018-04-10T12:15:12.389Z,100376.20
2018-04-10T12:17:40.500Z,100389.29
2018-04-10T12:20:09.552Z,100380.77
2018-04-10T12:22:38.117Z,100384.68
2018-04-10T12:25:06.244Z,100387.64
2018-04-10T12:27:34.849Z,100386.20
2018-04-10T12:30:03.775Z,100382.81
2018-04-10T12:32:31.873Z,100383.95
2018-04-10T12:35:00.000Z,100382.77
2018-04-10T12:37:28.146Z,100381.33
2018-04-10T12:39:56.242Z,100373.55
2018-04-10T12:42:24.360Z,100376.63
2018-04-10T12:44:52.510Z,100373.42
2018-04-10T12:47:20.642Z,100371.68
2018-04-10T12:49:48.949Z,100378.16
2018-04-10T12:52:17.325Z,100370.29
2018-04-10T12:54:45.724Z,100374.30
2018-04-10T12:57:14.441Z,100368.84
2018-04-10T12:59:42.541Z,100375.61
2018-04-10T13:15:10.714Z,100384.59
2018-04-10T13:17:38.835Z,100389.55
2018-04-10T13:20:07.381Z,100396.52
2018-04-10T13:22:35.477Z,100390.80
2018-04-10T13:25:03.716Z,100386.81
2018-04-10T13:27:32.412Z,100384.52
2018-04-10T13:30:00.519Z,100393.37
2018-04-10T13:32:28.616Z,100390.61
2018-04-10T13:34:57.508Z,100385.27
2018-04-10T13:37:25.762Z,100393.00
2018-04-10T13:39:54.082Z,100389.34
2018-04-10T13:42:22.176Z,100389.77
2018-04-10T13:44:51.700Z,100393.93
2018-04-10T13:47:19.821Z,100387.71
2018-04-10T13:49:47.956Z,100389.05
2018-04-10T13:52:16.068Z,100389.70
2018-04-10T13:54:44.986Z,100385.91
2018-04-10T13:57:13.090Z,100386.20
2018-04-10T13:59:41.184Z,100385.80
2018-04-10T14:02:09.282Z,100387.45
2018-04-10T14:04:38.239Z,100382.25
2018-04-10T14:07:07.028Z,100381.84
2018-04-10T14:09:35.140Z,100379.83
2018-04-10T14:12:03.241Z,100383.28
2018-04-10T14:14:31.391Z,100372.39
2018-04-10T14:16:59.535Z,100378.20
2018-04-10T14:19:27.647Z,100370.26
2018-04-10T14:21:55.755Z,100366.72
2018-04-10T14:24:23.893Z,100364.88
2018-04-10T14:26:51.976Z,100359.54
2018-04-10T14:29:20.084Z,100363.18
2018-04-10T14:34:23.292Z,100369.98
2018-04-10T14:36:51.509Z,100369.69
2018-04-10T14:39:19.968Z,100371.74
2018-04-10T14:41:48.105Z,100370.83
2018-04-10T14:44:16.222Z,100374.97
2018-04-10T14:46:45.125Z,100362.41
2018-04-10T14:49:13.298Z,100361.41
2018-04-10T14:51:42.366Z,100353.39
2018-04-10T14:54:11.771Z,100360.27
2018-04-10T14:56:39.855Z,100361.97
2018-04-10T14:59:08.765Z,100357.41
2018-04-10T15:01:36.897Z,100370.32
2018-04-10T15:04:05.336Z,100365.74
2018-04-10T15:06:33.451Z,100372.83
2018-04-10T15:09:02.330Z,100369.47
2018-04-10T15:11:30.550Z,100374.69
2018-04-10T15:13:58.664Z,100373.25
2018-04-10T15:16:27.491Z,100370.13
2018-04-10T15:18:55.586Z,100371.97
2018-04-10T15:21:23.744Z,100371.98
2018-04-10T15:23:51.840Z,100374.97
2018-04-10T15:26:20.000Z,100372.48
2018-04-10T15:28:48.082Z,100377.19
2018-04-10T15:31:16.268Z,100379.56
2018-04-10T15:33:44.377Z,100378.25
2018-04-10T15:36:12.758Z,100379.83
2018-04-10T15:38:41.221Z,100378.25
2018-04-10T15:41:09.292Z,100382.98
2018-04-10T15:43:37.409Z,100378.83
2018-04-10T15:46:05.529Z,100376.33
2018-04-10T15:48:33.663Z,100381.41
2018-04-10T15:51:02.763Z,100380.95
2018-04-10T15:53:30.877Z,100386.10
2018-04-10T15:55:59.012Z,100380.95
2018-04-10T15:58:27.119Z,100387.27
2018-04-10T16:10:41.137Z,100399.39
2018-04-10T16:13:09.244Z,100398.03
2018-04-10T16:15:37.406Z,100406.59
2018-04-10T16:18:05.464Z,100399.74
2018-04-10T16:20:34.260Z,100405.59
2018-04-10T16:23:02.396Z,100411.81
2018-04-10T16:25:30.496Z,100406.70
2018-04-10T16:27:58.607Z,100404.46
2018-04-10T16:30:26.851Z,100408.05
2018-04-10T16:32:54.959Z,100404.46
2018-04-10T16:35:23.071Z,100401.52
2018-04-10T16:37:51.200Z,100396.38
2018-04-10T16:40:19.794Z,100402.25
2018-04-10T16:42:47.920Z,100407.31
2018-04-10T16:45:16.480Z,100409.11
2018-04-10T16:47:44.594Z,100404.38
2018-04-10T16:50:13.217Z,100405.61
2018-04-10T16:52:41.338Z,100406.80
2018-04-10T16:55:09.477Z,100407.81
2018-04-10T17:10:37.622Z,100408.59
2018-04-10T17:13:06.683Z,100415.94
2018-04-10T17:15:34.803Z,100413.65
2018-04-10T17:18:03.899Z,100414.36
2018-04-10T17:20:32.816Z,100414.17
2018-04-10T17:23:00.959Z,100418.98
2018-04-10T17:25:29.093Z,100410.94
2018-04-10T17:27:58.017Z,100417.48
2018-04-10T17:30:26.237Z,100414.26
2018-04-10T17:32:55.155Z,100410.24
2018-04-10T17:35:23.283Z,100414.53
2018-04-10T17:37:51.389Z,100415.97
2018-04-10T17:40:19.765Z,100407.30
2018-04-10T17:42:47.960Z,100407.02
2018-04-10T17:45:16.036Z,100410.48
2018-04-10T17:47:49.096Z,100412.27
2018-04-10T17:50:17.201Z,100421.73
2018-04-10T17:52:45.309Z,100426.47
2018-04-10T17:55:13.425Z,100418.47
2018-04-10T17:57:41.544Z,100422.02
2018-04-10T18:00:10.717Z,100431.22
2018-04-10T18:02:38.872Z,100427.47
2018-04-10T18:05:06.981Z,100429.55
2018-04-10T18:07:35.100Z,100424.26
2018-04-10T18:10:03.836Z,100425.80
2018-04-10T18:12:31.918Z,100430.55
2018-04-10T18:15:00.039Z,100427.97
2018-04-10T18:17:28.214Z,100427.55
2018-04-10T18:19:56.381Z,100421.97
2018-04-10T18:22:24.482Z,100425.57
2018-04-10T18:24:52.744Z,100432.00
2018-04-10T18:27:20.877Z,100427.73
2018-04-10T18:29:48.989Z,100433.02
2018-04-10T18:32:17.149Z,100433.78
2018-04-10T18:34:45.264Z,100436.69
2018-04-10T18:37:15.181Z,100433.39
2018-04-10T18:39:43.332Z,100437.16
2018-04-10T18:42:11.787Z,100434.97
2018-04-10T18:44:39.904Z,100436.95
2018-04-10T18:47:08.043Z,100439.91
2018-04-10T18:49:36.175Z,100439.28
2018-04-10T18:52:04.326Z,100441.78
2018-04-10T18:54:32.428Z,100446.14
2018-04-10T18:57:01.116Z,100454.09
2018-04-10T18:59:29.590Z,100457.56
2018-04-10T19:14:58.184Z,100473.41
2018-04-10T19:17:26.315Z,100477.68
2018-04-10T19:19:54.439Z,100484.25
2018-04-10T19:22:23.453Z,100478.48
2018-04-10T19:24:51.552Z,100489.02
2018-04-10T19:27:19.963Z,100481.11
2018-04-10T19:29:49.057Z,100482.34
2018-04-10T19:32:17.647Z,100479.79
2018-04-10T19:34:45.787Z,100482.05
2018-04-10T19:37:13.915Z,100484.33
2018-04-10T19:39:42.003Z,100476.28
2018-04-10T19:55:10.127Z,100473.58
2018-04-10T19:57:39.371Z,100476.11
2018-04-10T20:00:07.509Z,100479.08
2018-04-10T20:02:35.597Z,100471.71
2018-04-10T20:05:04.477Z,100467.30
2018-04-10T20:07:32.572Z,100466.25
2018-04-10T20:10:00.677Z,100462.44
2018-04-10T20:12:28.803Z,100464.56
2018-04-10T20:14:56.890Z,100467.05
2018-04-10T20:17:25.033Z,100465.61
2018-04-10T20:19:53.698Z,100464.05
2018-04-10T20:22:22.614Z,100463.70
2018-04-10T20:24:51.832Z,100460.83
2018-04-10T20:27:19.993Z,100461.55
2018-04-10T20:29:48.058Z,100458.25
2018-04-10T20:32:16.144Z,100455.58
2018-04-10T20:34:44.522Z,100454.52
2018-04-10T20:37:13.316Z,100449.09
2018-04-10T20:39:41.426Z,100456.25
2018-04-10T20:42:10.336Z,100452.56
2018-04-10T20:44:38.426Z,100449.61
2018-04-10T20:47:07.316Z,100438.44
2018-04-10T20:49:35.422Z,100436.11
2018-04-10T20:52:04.027Z,100422.02
2018-04-10T20:54:32.153Z,100412.88
2018-04-10T20:57:00.294Z,100408.64
2018-04-10T20:59:28.433Z,100405.34
2018-04-10T21:01:57.483Z,100396.33
2018-04-10T21:04:25.593Z,100406.32
2018-04-10T21:06:53.693Z,100408.14
2018-04-10T21:09:21.805Z,100405.98
2018-04-10T21:24:49.927Z,100388.33
2018-04-10T21:27:18.079Z,100412.70
2018-04-10T21:29:46.185Z,100428.25
2018-04-10T21:32:14.279Z,100411.67
2018-04-10T21:34:42.419Z,100386.67
2018-04-10T21:50:10.542Z,100343.05
2018-04-10T21:52:38.662Z,100327.47
2018-04-10T21:55:07.267Z,100324.89
2018-04-10T21:57:35.412Z,100319.44
2018-04-10T22:00:04.150Z,100317.14
2018-04-10T22:02:32.388Z,100330.26
2018-04-10T22:05:00.466Z,100353.02
2018-04-10T22:07:28.605Z,100428.98
2018-04-10T22:09:56.698Z,100437.57
2018-04-10T22:12:25.306Z,100411.05
2018-04-10T22:14:53.406Z,100391.41
2018-04-10T22:17:21.525Z,100379.55
2018-04-10T22:19:50.461Z,100367.23
2018-04-10T22:22:18.545Z,100359.41
2018-04-10T22:24:47.550Z,100361.56
2018-04-10T22:27:15.686Z,100451.53
2018-04-10T22:29:43.820Z,100503.95
2018-04-10T22:32:11.937Z,100424.02
2018-04-10T22:34:40.879Z,100520.43
2018-04-10T22:37:10.147Z,100599.59
2018-04-10T22:39:38.529Z,100609.73
2018-04-10T22:42:07.161Z,100605.02
2018-04-10T22:44:35.652Z,100606.64
2018-04-10T22:47:04.240Z,100597.58
2018-04-10T22:49:32.369Z,100581.37
2018-04-10T22:52:01.303Z,100554.98
2018-04-10T22:54:30.609Z,100495.16
2018-04-10T22:56:58.946Z,100414.83
2018-04-10T22:59:27.042Z,100409.98
2018-04-10T23:01:55.154Z,100459.12
2018-04-10T23:04:23.270Z,100464.19
2018-04-10T23:06:51.368Z,100597.88
2018-04-10T23:09:19.483Z,100635.09
2018-04-10T23:11:48.403Z,100634.92
2018-04-10T23:14:16.521Z,100571.03
2018-04-10T23:16:44.897Z,100543.69
2018-04-10T23:19:13.008Z,100524.14
2018-04-10T23:21:41.105Z,100491.66
2018-04-10T23:24:10.103Z,100431.13
2018-04-10T23:26:38.460Z,100390.64
2018-04-10T23:29:06.548Z,100379.52
2018-04-10T23:31:34.683Z,100386.05
2018-04-10T23:34:03.076Z,100407.64
2018-04-10T23:36:31.167Z,100434.02
2018-04-10T23:38:59.254Z,100442.84
2018-04-10T23:41:27.469Z,100438.51
2018-04-10T23:43:55.594Z,100435.00
2018-04-10T23:46:24.068Z,100444.58
2018-04-10T23:48:52.164Z,100432.70
2018-04-10T23:51:20.260Z,100433.52
2018-04-10T23:53:49.309Z,100439.89
2018-04-10T23:56:17.371Z,100441.73
2018-04-10T23:58:45.488Z,100436.77
